sensor_id;sensor_type;location;lat;lon;timestamp;temperature;humidity
44767;DHT22;30487;48.716;9.272;2023-06-10T00:01:51;21.30;71.60
44767;DHT22;30487;48.716;9.272;2023-06-10T00:04:21;21.30;71.70
44767;DHT22;30487;48.716;9.272;2023-06-10T00:06:47;21.30;71.60
44767;DHT22;30487;48.716;9.272;2023-06-10T00:09:15;21.20;71.90
44767;DHT22;30487;48.716;9.272;2023-06-10T00:11:41;21.10;72.20
44767;DHT22;30487;48.716;9.272;2023-06-10T00:14:07;21.10;72.60
44767;DHT22;30487;48.716;9.272;2023-06-10T00:16:34;21.00;72.70
44767;DHT22;30487;48.716;9.272;2023-06-10T00:19:00;21.00;73.00
44767;DHT22;30487;48.716;9.272;2023-06-10T00:21:27;21.00;72.90
44767;DHT22;30487;48.716;9.272;2023-06-10T00:23:53;21.10;72.90
44767;DHT22;30487;48.716;9.272;2023-06-10T00:26:21;21.10;72.90
44767;DHT22;30487;48.716;9.272;2023-06-10T00:28:46;21.10;72.80
44767;DHT22;30487;48.716;9.272;2023-06-10T00:31:12;21.20;72.90
44767;DHT22;30487;48.716;9.272;2023-06-10T00:33:38;21.10;72.90
44767;DHT22;30487;48.716;9.272;2023-06-10T00:36:03;21.20;73.00
44767;DHT22;30487;48.716;9.272;2023-06-10T00:38:29;21.10;73.10
44767;DHT22;30487;48.716;9.272;2023-06-10T00:40:55;21.10;73.10
44767;DHT22;30487;48.716;9.272;2023-06-10T00:43:20;21.10;73.10
44767;DHT22;30487;48.716;9.272;2023-06-10T00:45:46;21.00;73.20
44767;DHT22;30487;48.716;9.272;2023-06-10T00:48:11;21.00;73.40
44767;DHT22;30487;48.716;9.272;2023-06-10T00:50:37;21.00;73.50
44767;DHT22;30487;48.716;9.272;2023-06-10T00:53:06;21.00;73.80
44767;DHT22;30487;48.716;9.272;2023-06-10T00:55:33;20.90;74.00
44767;DHT22;30487;48.716;9.272;2023-06-10T00:57:59;20.90;74.10
44767;DHT22;30487;48.716;9.272;2023-06-10T01:00:25;20.90;74.20
44767;DHT22;30487;48.716;9.272;2023-06-10T01:02:51;20.90;74.20
44767;DHT22;30487;48.716;9.272;2023-06-10T01:05:20;20.80;74.30
44767;DHT22;30487;48.716;9.272;2023-06-10T01:10:38;20.80;74.60
44767;DHT22;30487;48.716;9.272;2023-06-10T01:13:09;20.80;74.70
44767;DHT22;30487;48.716;9.272;2023-06-10T01:15:37;20.80;74.90
44767;DHT22;30487;48.716;9.272;2023-06-10T01:18:08;20.80;75.70
44767;DHT22;30487;48.716;9.272;2023-06-10T01:20:36;20.80;74.90
44767;DHT22;30487;48.716;9.272;2023-06-10T01:23:05;20.70;75.10
44767;DHT22;30487;48.716;9.272;2023-06-10T01:25:32;20.70;75.40
44767;DHT22;30487;48.716;9.272;2023-06-10T01:28:30;20.70;75.50
44767;DHT22;30487;48.716;9.272;2023-06-10T01:31:20;20.60;75.80
44767;DHT22;30487;48.716;9.272;2023-06-10T01:33:52;20.60;76.00
44767;DHT22;30487;48.716;9.272;2023-06-10T01:36:19;20.60;76.10
44767;DHT22;30487;48.716;9.272;2023-06-10T01:38:47;20.50;76.10
44767;DHT22;30487;48.716;9.272;2023-06-10T01:41:14;20.50;76.40
44767;DHT22;30487;48.716;9.272;2023-06-10T01:43:42;20.40;76.80
44767;DHT22;30487;48.716;9.272;2023-06-10T01:46:09;20.30;76.80
44767;DHT22;30487;48.716;9.272;2023-06-10T01:48:34;20.30;76.90
44767;DHT22;30487;48.716;9.272;2023-06-10T01:51:00;20.30;77.20
44767;DHT22;30487;48.716;9.272;2023-06-10T01:53:26;20.20;77.30
44767;DHT22;30487;48.716;9.272;2023-06-10T01:55:51;20.20;77.70
44767;DHT22;30487;48.716;9.272;2023-06-10T01:58:17;20.20;77.80
44767;DHT22;30487;48.716;9.272;2023-06-10T02:00:43;20.10;77.80
44767;DHT22;30487;48.716;9.272;2023-06-10T02:03:08;20.10;78.10
44767;DHT22;30487;48.716;9.272;2023-06-10T02:05:34;20.20;77.90
44767;DHT22;30487;48.716;9.272;2023-06-10T02:07:59;20.20;78.00
44767;DHT22;30487;48.716;9.272;2023-06-10T02:10:26;20.30;78.00
44767;DHT22;30487;48.716;9.272;2023-06-10T02:12:51;20.30;78.10
44767;DHT22;30487;48.716;9.272;2023-06-10T02:15:17;20.20;78.20
44767;DHT22;30487;48.716;9.272;2023-06-10T02:17:42;20.20;78.30
44767;DHT22;30487;48.716;9.272;2023-06-10T02:20:10;20.20;78.30
44767;DHT22;30487;48.716;9.272;2023-06-10T02:22:36;20.10;78.40
44767;DHT22;30487;48.716;9.272;2023-06-10T02:25:02;20.00;78.80
44767;DHT22;30487;48.716;9.272;2023-06-10T02:27:29;20.10;78.80
44767;DHT22;30487;48.716;9.272;2023-06-10T02:29:56;20.00;78.80
44767;DHT22;30487;48.716;9.272;2023-06-10T02:32:22;19.90;78.90
44767;DHT22;30487;48.716;9.272;2023-06-10T02:34:47;19.80;79.40
44767;DHT22;30487;48.716;9.272;2023-06-10T02:37:14;19.80;79.40
44767;DHT22;30487;48.716;9.272;2023-06-10T02:39:40;19.80;79.60
44767;DHT22;30487;48.716;9.272;2023-06-10T02:42:06;19.70;80.00
44767;DHT22;30487;48.716;9.272;2023-06-10T02:44:32;19.70;80.50
44767;DHT22;30487;48.716;9.272;2023-06-10T02:46:57;19.70;80.40
44767;DHT22;30487;48.716;9.272;2023-06-10T02:49:23;19.60;80.50
44767;DHT22;30487;48.716;9.272;2023-06-10T02:51:50;19.60;80.50
44767;DHT22;30487;48.716;9.272;2023-06-10T02:54:19;19.70;80.60
44767;DHT22;30487;48.716;9.272;2023-06-10T02:56:45;19.60;80.50
44767;DHT22;30487;48.716;9.272;2023-06-10T02:59:11;19.40;80.70
44767;DHT22;30487;48.716;9.272;2023-06-10T03:01:36;19.40;80.90
44767;DHT22;30487;48.716;9.272;2023-06-10T03:04:04;19.30;81.00
44767;DHT22;30487;48.716;9.272;2023-06-10T03:06:30;19.20;81.60
44767;DHT22;30487;48.716;9.272;2023-06-10T03:08:55;19.00;82.50
44767;DHT22;30487;48.716;9.272;2023-06-10T03:11:21;19.00;82.90
44767;DHT22;30487;48.716;9.272;2023-06-10T03:13:46;18.90;83.40
44767;DHT22;30487;48.716;9.272;2023-06-10T03:16:12;18.90;83.00
44767;DHT22;30487;48.716;9.272;2023-06-10T03:18:38;18.90;83.20
44767;DHT22;30487;48.716;9.272;2023-06-10T03:21:03;19.00;83.40
44767;DHT22;30487;48.716;9.272;2023-06-10T03:23:29;18.70;83.60
44767;DHT22;30487;48.716;9.272;2023-06-10T03:25:55;18.80;83.60
44767;DHT22;30487;48.716;9.272;2023-06-10T03:28:20;18.90;83.90
44767;DHT22;30487;48.716;9.272;2023-06-10T03:30:47;18.80;84.00
44767;DHT22;30487;48.716;9.272;2023-06-10T03:33:13;18.90;84.00
44767;DHT22;30487;48.716;9.272;2023-06-10T03:35:39;18.90;84.30
44767;DHT22;30487;48.716;9.272;2023-06-10T03:38:05;18.90;84.50
44767;DHT22;30487;48.716;9.272;2023-06-10T03:40:31;18.90;84.70
44767;DHT22;30487;48.716;9.272;2023-06-10T03:42:57;18.90;85.30
44767;DHT22;30487;48.716;9.272;2023-06-10T03:45:23;18.90;85.30
44767;DHT22;30487;48.716;9.272;2023-06-10T03:47:49;18.90;85.40
44767;DHT22;30487;48.716;9.272;2023-06-10T03:50:16;18.90;85.40
44767;DHT22;30487;48.716;9.272;2023-06-10T03:52:41;19.00;85.40
44767;DHT22;30487;48.716;9.272;2023-06-10T03:55:07;19.00;85.60
44767;DHT22;30487;48.716;9.272;2023-06-10T03:57:33;18.90;86.50
44767;DHT22;30487;48.716;9.272;2023-06-10T03:59:58;18.90;85.80
44767;DHT22;30487;48.716;9.272;2023-06-10T04:02:24;19.00;86.10
44767;DHT22;30487;48.716;9.272;2023-06-10T04:04:50;19.00;86.10
44767;DHT22;30487;48.716;9.272;2023-06-10T04:07:16;19.00;86.10
44767;DHT22;30487;48.716;9.272;2023-06-10T04:09:44;19.00;86.30
44767;DHT22;30487;48.716;9.272;2023-06-10T04:12:09;19.10;86.60
44767;DHT22;30487;48.716;9.272;2023-06-10T04:14:36;19.00;86.70
44767;DHT22;30487;48.716;9.272;2023-06-10T04:17:04;19.10;86.90
44767;DHT22;30487;48.716;9.272;2023-06-10T04:19:32;19.00;87.10
44767;DHT22;30487;48.716;9.272;2023-06-10T04:21:57;19.00;87.30
44767;DHT22;30487;48.716;9.272;2023-06-10T04:24:23;19.10;87.20
44767;DHT22;30487;48.716;9.272;2023-06-10T04:26:49;19.10;87.50
44767;DHT22;30487;48.716;9.272;2023-06-10T04:29:15;19.10;87.40
44767;DHT22;30487;48.716;9.272;2023-06-10T04:31:40;19.20;87.60
44767;DHT22;30487;48.716;9.272;2023-06-10T04:34:06;19.20;87.60
44767;DHT22;30487;48.716;9.272;2023-06-10T04:36:33;19.10;87.90
44767;DHT22;30487;48.716;9.272;2023-06-10T04:38:58;19.10;88.20
44767;DHT22;30487;48.716;9.272;2023-06-10T04:41:24;19.10;88.70
44767;DHT22;30487;48.716;9.272;2023-06-10T04:43:51;19.10;88.90
44767;DHT22;30487;48.716;9.272;2023-06-10T04:46:17;19.20;88.80
44767;DHT22;30487;48.716;9.272;2023-06-10T04:48:42;19.20;89.10
44767;DHT22;30487;48.716;9.272;2023-06-10T04:51:08;19.30;89.00
44767;DHT22;30487;48.716;9.272;2023-06-10T04:53:33;19.30;89.20
44767;DHT22;30487;48.716;9.272;2023-06-10T04:55:59;19.40;89.20
44767;DHT22;30487;48.716;9.272;2023-06-10T04:58:24;19.50;88.50
44767;DHT22;30487;48.716;9.272;2023-06-10T05:00:50;19.50;88.50
44767;DHT22;30487;48.716;9.272;2023-06-10T05:03:16;19.60;88.90
44767;DHT22;30487;48.716;9.272;2023-06-10T05:05:41;19.60;88.70
44767;DHT22;30487;48.716;9.272;2023-06-10T05:08:07;19.60;89.40
44767;DHT22;30487;48.716;9.272;2023-06-10T05:10:33;19.60;89.00
44767;DHT22;30487;48.716;9.272;2023-06-10T05:12:59;19.60;90.00
44767;DHT22;30487;48.716;9.272;2023-06-10T05:15:25;19.70;90.20
44767;DHT22;30487;48.716;9.272;2023-06-10T05:17:50;19.80;90.50
44767;DHT22;30487;48.716;9.272;2023-06-10T05:20:18;19.90;90.30
44767;DHT22;30487;48.716;9.272;2023-06-10T05:22:43;19.90;90.00
44767;DHT22;30487;48.716;9.272;2023-06-10T05:25:10;19.90;89.80
44767;DHT22;30487;48.716;9.272;2023-06-10T05:27:36;19.90;90.00
44767;DHT22;30487;48.716;9.272;2023-06-10T05:30:02;19.90;89.80
44767;DHT22;30487;48.716;9.272;2023-06-10T05:32:28;19.80;90.10
44767;DHT22;30487;48.716;9.272;2023-06-10T05:34:54;19.90;90.00
44767;DHT22;30487;48.716;9.272;2023-06-10T05:37:20;19.90;90.30
44767;DHT22;30487;48.716;9.272;2023-06-10T05:39:45;19.90;90.30
44767;DHT22;30487;48.716;9.272;2023-06-10T05:42:11;20.00;90.30
44767;DHT22;30487;48.716;9.272;2023-06-10T05:44:36;20.10;90.40
44767;DHT22;30487;48.716;9.272;2023-06-10T05:47:02;20.10;90.20
44767;DHT22;30487;48.716;9.272;2023-06-10T05:49:28;20.20;90.40
44767;DHT22;30487;48.716;9.272;2023-06-10T05:51:53;20.20;90.20
44767;DHT22;30487;48.716;9.272;2023-06-10T05:54:21;20.30;90.40
44767;DHT22;30487;48.716;9.272;2023-06-10T05:56:47;20.40;89.80
44767;DHT22;30487;48.716;9.272;2023-06-10T05:59:12;20.30;90.40
44767;DHT22;30487;48.716;9.272;2023-06-10T06:01:38;20.40;90.20
44767;DHT22;30487;48.716;9.272;2023-06-10T06:04:03;20.60;90.00
44767;DHT22;30487;48.716;9.272;2023-06-10T06:06:29;20.40;90.00
44767;DHT22;30487;48.716;9.272;2023-06-10T06:08:54;20.50;90.40
44767;DHT22;30487;48.716;9.272;2023-06-10T06:11:20;20.60;90.40
44767;DHT22;30487;48.716;9.272;2023-06-10T06:13:46;20.70;90.40
44767;DHT22;30487;48.716;9.272;2023-06-10T06:16:13;20.70;90.30
44767;DHT22;30487;48.716;9.272;2023-06-10T06:18:39;20.80;90.30
44767;DHT22;30487;48.716;9.272;2023-06-10T06:21:04;20.60;90.80
44767;DHT22;30487;48.716;9.272;2023-06-10T06:23:30;20.70;91.30
44767;DHT22;30487;48.716;9.272;2023-06-10T06:25:56;20.70;91.30
44767;DHT22;30487;48.716;9.272;2023-06-10T06:28:21;20.80;91.30
44767;DHT22;30487;48.716;9.272;2023-06-10T06:30:48;20.90;90.90
44767;DHT22;30487;48.716;9.272;2023-06-10T06:33:13;21.00;90.70
44767;DHT22;30487;48.716;9.272;2023-06-10T06:35:39;21.10;90.90
44767;DHT22;30487;48.716;9.272;2023-06-10T06:38:05;21.10;90.90
44767;DHT22;30487;48.716;9.272;2023-06-10T06:40:31;21.20;90.80
44767;DHT22;30487;48.716;9.272;2023-06-10T06:42:56;21.30;90.70
44767;DHT22;30487;48.716;9.272;2023-06-10T06:45:22;21.40;90.30
44767;DHT22;30487;48.716;9.272;2023-06-10T06:47:48;21.50;90.40
44767;DHT22;30487;48.716;9.272;2023-06-10T06:50:13;21.50;90.60
44767;DHT22;30487;48.716;9.272;2023-06-10T06:52:39;21.60;90.80
44767;DHT22;30487;48.716;9.272;2023-06-10T06:55:05;21.70;90.50
44767;DHT22;30487;48.716;9.272;2023-06-10T06:57:31;21.80;90.60
44767;DHT22;30487;48.716;9.272;2023-06-10T06:59:57;21.80;90.50
44767;DHT22;30487;48.716;9.272;2023-06-10T07:02:22;21.90;90.20
44767;DHT22;30487;48.716;9.272;2023-06-10T07:04:48;22.00;89.50
44767;DHT22;30487;48.716;9.272;2023-06-10T07:07:15;22.00;89.80
44767;DHT22;30487;48.716;9.272;2023-06-10T07:09:40;22.10;89.80
44767;DHT22;30487;48.716;9.272;2023-06-10T07:12:06;22.20;89.40
44767;DHT22;30487;48.716;9.272;2023-06-10T07:14:32;22.20;89.30
44767;DHT22;30487;48.716;9.272;2023-06-10T07:16:58;22.30;88.60
44767;DHT22;30487;48.716;9.272;2023-06-10T07:19:24;22.50;88.10
44767;DHT22;30487;48.716;9.272;2023-06-10T07:21:49;22.60;86.90
44767;DHT22;30487;48.716;9.272;2023-06-10T07:24:15;22.70;87.00
44767;DHT22;30487;48.716;9.272;2023-06-10T07:26:40;22.70;86.50
44767;DHT22;30487;48.716;9.272;2023-06-10T07:29:06;22.70;86.50
44767;DHT22;30487;48.716;9.272;2023-06-10T07:31:32;22.80;86.20
44767;DHT22;30487;48.716;9.272;2023-06-10T07:33:57;22.80;86.70
44767;DHT22;30487;48.716;9.272;2023-06-10T07:36:23;22.80;86.50
44767;DHT22;30487;48.716;9.272;2023-06-10T07:38:48;22.80;86.60
44767;DHT22;30487;48.716;9.272;2023-06-10T07:41:14;22.90;86.30
44767;DHT22;30487;48.716;9.272;2023-06-10T07:43:43;23.10;86.10
44767;DHT22;30487;48.716;9.272;2023-06-10T07:46:08;23.20;85.20
44767;DHT22;30487;48.716;9.272;2023-06-10T07:48:34;23.20;84.30
44767;DHT22;30487;48.716;9.272;2023-06-10T07:51:00;23.20;84.80
44767;DHT22;30487;48.716;9.272;2023-06-10T07:53:25;23.20;84.40
44767;DHT22;30487;48.716;9.272;2023-06-10T07:55:51;23.20;84.70
44767;DHT22;30487;48.716;9.272;2023-06-10T07:58:16;23.30;84.80
44767;DHT22;30487;48.716;9.272;2023-06-10T08:00:42;23.40;84.30
44767;DHT22;30487;48.716;9.272;2023-06-10T08:03:07;23.50;83.80
44767;DHT22;30487;48.716;9.272;2023-06-10T08:05:33;23.70;83.70
44767;DHT22;30487;48.716;9.272;2023-06-10T08:07:58;23.80;83.90
44767;DHT22;30487;48.716;9.272;2023-06-10T08:10:24;23.90;83.10
44767;DHT22;30487;48.716;9.272;2023-06-10T08:12:50;24.00;83.30
44767;DHT22;30487;48.716;9.272;2023-06-10T08:15:15;24.00;83.20
44767;DHT22;30487;48.716;9.272;2023-06-10T08:17:41;24.00;82.70
44767;DHT22;30487;48.716;9.272;2023-06-10T08:20:07;24.20;83.10
44767;DHT22;30487;48.716;9.272;2023-06-10T08:22:33;24.40;82.60
44767;DHT22;30487;48.716;9.272;2023-06-10T08:24:59;24.40;81.80
44767;DHT22;30487;48.716;9.272;2023-06-10T08:27:24;24.50;82.00
44767;DHT22;30487;48.716;9.272;2023-06-10T08:29:50;24.60;81.90
44767;DHT22;30487;48.716;9.272;2023-06-10T08:32:16;24.80;81.10
44767;DHT22;30487;48.716;9.272;2023-06-10T08:34:41;24.90;81.00
44767;DHT22;30487;48.716;9.272;2023-06-10T08:37:07;25.00;81.20
44767;DHT22;30487;48.716;9.272;2023-06-10T08:39:32;25.10;80.50
44767;DHT22;30487;48.716;9.272;2023-06-10T08:42:22;25.30;80.20
44767;DHT22;30487;48.716;9.272;2023-06-10T08:44:50;25.30;80.00
44767;DHT22;30487;48.716;9.272;2023-06-10T08:47:18;25.60;79.30
44767;DHT22;30487;48.716;9.272;2023-06-10T08:49:46;25.60;79.50
44767;DHT22;30487;48.716;9.272;2023-06-10T08:52:20;25.60;79.50
44767;DHT22;30487;48.716;9.272;2023-06-10T08:55:02;25.70;80.00
44767;DHT22;30487;48.716;9.272;2023-06-10T08:57:28;25.90;79.20
44767;DHT22;30487;48.716;9.272;2023-06-10T08:59:56;26.00;79.30
44767;DHT22;30487;48.716;9.272;2023-06-10T09:02:23;26.20;78.80
44767;DHT22;30487;48.716;9.272;2023-06-10T09:04:50;26.30;78.50
44767;DHT22;30487;48.716;9.272;2023-06-10T09:07:16;26.50;78.20
44767;DHT22;30487;48.716;9.272;2023-06-10T09:09:43;26.50;78.40
44767;DHT22;30487;48.716;9.272;2023-06-10T09:12:10;26.60;77.20
44767;DHT22;30487;48.716;9.272;2023-06-10T09:14:36;26.70;77.60
44767;DHT22;30487;48.716;9.272;2023-06-10T09:17:03;26.90;76.60
44767;DHT22;30487;48.716;9.272;2023-06-10T09:19:29;27.00;76.20
44767;DHT22;30487;48.716;9.272;2023-06-10T09:21:55;27.20;75.70
44767;DHT22;30487;48.716;9.272;2023-06-10T09:24:24;27.10;76.00
44767;DHT22;30487;48.716;9.272;2023-06-10T09:26:50;27.20;75.90
44767;DHT22;30487;48.716;9.272;2023-06-10T09:29:17;27.10;74.90
44767;DHT22;30487;48.716;9.272;2023-06-10T09:31:43;27.20;73.90
44767;DHT22;30487;48.716;9.272;2023-06-10T09:34:14;26.90;73.90
44767;DHT22;30487;48.716;9.272;2023-06-10T09:36:41;26.60;75.30
44767;DHT22;30487;48.716;9.272;2023-06-10T09:39:19;26.70;74.90
44767;DHT22;30487;48.716;9.272;2023-06-10T09:41:45;26.80;74.90
44767;DHT22;30487;48.716;9.272;2023-06-10T09:44:18;27.00;73.50
44767;DHT22;30487;48.716;9.272;2023-06-10T09:46:49;27.10;73.80
44767;DHT22;30487;48.716;9.272;2023-06-10T09:49:18;27.40;72.30
44767;DHT22;30487;48.716;9.272;2023-06-10T09:51:54;27.40;73.40
44767;DHT22;30487;48.716;9.272;2023-06-10T09:54:21;27.70;72.20
44767;DHT22;30487;48.716;9.272;2023-06-10T09:56:48;27.90;72.50
44767;DHT22;30487;48.716;9.272;2023-06-10T09:59:14;28.00;71.80
44767;DHT22;30487;48.716;9.272;2023-06-10T10:01:40;28.10;71.50
44767;DHT22;30487;48.716;9.272;2023-06-10T10:04:05;28.10;71.00
44767;DHT22;30487;48.716;9.272;2023-06-10T10:06:31;28.30;70.50
44767;DHT22;30487;48.716;9.272;2023-06-10T10:08:57;28.50;69.30
44767;DHT22;30487;48.716;9.272;2023-06-10T10:11:24;28.60;69.40
44767;DHT22;30487;48.716;9.272;2023-06-10T10:13:52;28.60;69.40
44767;DHT22;30487;48.716;9.272;2023-06-10T10:16:20;28.70;70.10
44767;DHT22;30487;48.716;9.272;2023-06-10T10:18:52;28.90;69.10
44767;DHT22;30487;48.716;9.272;2023-06-10T10:21:26;29.20;68.20
44767;DHT22;30487;48.716;9.272;2023-06-10T10:26:48;29.40;66.80
44767;DHT22;30487;48.716;9.272;2023-06-10T10:29:30;28.90;68.00
44767;DHT22;30487;48.716;9.272;2023-06-10T10:31:57;28.50;68.50
44767;DHT22;30487;48.716;9.272;2023-06-10T10:34:50;28.60;68.50
44767;DHT22;30487;48.716;9.272;2023-06-10T10:37:20;28.90;66.90
44767;DHT22;30487;48.716;9.272;2023-06-10T10:39:45;29.00;67.50
44767;DHT22;30487;48.716;9.272;2023-06-10T10:42:12;29.20;66.40
44767;DHT22;30487;48.716;9.272;2023-06-10T10:44:38;29.50;65.60
44767;DHT22;30487;48.716;9.272;2023-06-10T10:47:08;29.40;65.80
44767;DHT22;30487;48.716;9.272;2023-06-10T10:49:35;29.40;65.40
44767;DHT22;30487;48.716;9.272;2023-06-10T10:52:02;29.60;65.20
44767;DHT22;30487;48.716;9.272;2023-06-10T10:57:18;29.90;63.80
44767;DHT22;30487;48.716;9.272;2023-06-10T10:59:44;30.00;63.10
44767;DHT22;30487;48.716;9.272;2023-06-10T11:02:14;30.10;63.20
44767;DHT22;30487;48.716;9.272;2023-06-10T11:04:45;30.20;63.30
44767;DHT22;30487;48.716;9.272;2023-06-10T11:07:11;30.20;67.70
44767;DHT22;30487;48.716;9.272;2023-06-10T11:10:02;30.30;64.60
44767;DHT22;30487;48.716;9.272;2023-06-10T11:15:06;30.20;65.20
44767;DHT22;30487;48.716;9.272;2023-06-10T11:17:32;30.20;66.50
44767;DHT22;30487;48.716;9.272;2023-06-10T11:19:59;30.10;67.20
44767;DHT22;30487;48.716;9.272;2023-06-10T11:22:24;30.10;66.90
44767;DHT22;30487;48.716;9.272;2023-06-10T11:24:51;30.00;67.60
44767;DHT22;30487;48.716;9.272;2023-06-10T11:27:21;30.00;66.50
44767;DHT22;30487;48.716;9.272;2023-06-10T11:32:32;29.80;66.60
44767;DHT22;30487;48.716;9.272;2023-06-10T11:34:59;29.80;66.40
44767;DHT22;30487;48.716;9.272;2023-06-10T11:37:25;29.80;65.60
44767;DHT22;30487;48.716;9.272;2023-06-10T11:39:55;29.90;66.20
44767;DHT22;30487;48.716;9.272;2023-06-10T11:42:23;30.00;65.70
44767;DHT22;30487;48.716;9.272;2023-06-10T11:44:51;30.10;66.70
44767;DHT22;30487;48.716;9.272;2023-06-10T11:47:18;30.30;66.90
44767;DHT22;30487;48.716;9.272;2023-06-10T11:49:44;30.50;65.40
44767;DHT22;30487;48.716;9.272;2023-06-10T11:52:10;30.60;65.80
44767;DHT22;30487;48.716;9.272;2023-06-10T11:54:37;30.80;65.20
44767;DHT22;30487;48.716;9.272;2023-06-10T11:57:03;30.90;65.50
44767;DHT22;30487;48.716;9.272;2023-06-10T11:59:29;30.80;65.20
44767;DHT22;30487;48.716;9.272;2023-06-10T12:01:56;30.80;65.00
44767;DHT22;30487;48.716;9.272;2023-06-10T12:04:22;30.90;64.50
44767;DHT22;30487;48.716;9.272;2023-06-10T12:06:49;31.00;64.20
44767;DHT22;30487;48.716;9.272;2023-06-10T12:11:57;30.60;64.10
44767;DHT22;30487;48.716;9.272;2023-06-10T12:17:15;29.90;64.80
44767;DHT22;30487;48.716;9.272;2023-06-10T12:19:40;29.60;64.90
44767;DHT22;30487;48.716;9.272;2023-06-10T12:22:06;29.80;65.60
44767;DHT22;30487;48.716;9.272;2023-06-10T12:24:32;30.10;64.60
44767;DHT22;30487;48.716;9.272;2023-06-10T12:26:57;30.20;63.90
44767;DHT22;30487;48.716;9.272;2023-06-10T12:29:24;30.10;64.80
44767;DHT22;30487;48.716;9.272;2023-06-10T12:32:03;29.90;64.80
44767;DHT22;30487;48.716;9.272;2023-06-10T12:36:56;29.60;65.50
44767;DHT22;30487;48.716;9.272;2023-06-10T12:39:21;29.90;65.80
44767;DHT22;30487;48.716;9.272;2023-06-10T12:41:48;30.30;64.90
44767;DHT22;30487;48.716;9.272;2023-06-10T12:44:15;30.70;64.10
44767;DHT22;30487;48.716;9.272;2023-06-10T12:46:40;31.00;63.70
44767;DHT22;30487;48.716;9.272;2023-06-10T12:49:06;31.30;63.50
44767;DHT22;30487;48.716;9.272;2023-06-10T12:51:31;31.60;63.00
44767;DHT22;30487;48.716;9.272;2023-06-10T12:53:57;31.80;62.70
44767;DHT22;30487;48.716;9.272;2023-06-10T12:56:23;32.00;62.20
44767;DHT22;30487;48.716;9.272;2023-06-10T12:58:49;32.10;60.80
44767;DHT22;30487;48.716;9.272;2023-06-10T13:01:14;32.40;59.90
44767;DHT22;30487;48.716;9.272;2023-06-10T13:03:40;32.10;60.70
44767;DHT22;30487;48.716;9.272;2023-06-10T13:06:06;32.20;60.60
44767;DHT22;30487;48.716;9.272;2023-06-10T13:08:32;32.50;60.40
44767;DHT22;30487;48.716;9.272;2023-06-10T13:10:58;32.60;60.60
44767;DHT22;30487;48.716;9.272;2023-06-10T13:13:23;32.20;60.60
44767;DHT22;30487;48.716;9.272;2023-06-10T13:15:49;31.50;61.20
44767;DHT22;30487;48.716;9.272;2023-06-10T13:18:15;30.80;62.10
44767;DHT22;30487;48.716;9.272;2023-06-10T13:20:43;30.20;60.40
44767;DHT22;30487;48.716;9.272;2023-06-10T13:23:09;29.90;62.60
44767;DHT22;30487;48.716;9.272;2023-06-10T13:25:35;29.80;63.00
44767;DHT22;30487;48.716;9.272;2023-06-10T13:28:00;29.90;63.20
44767;DHT22;30487;48.716;9.272;2023-06-10T13:30:26;30.00;62.70
44767;DHT22;30487;48.716;9.272;2023-06-10T13:32:52;30.10;63.00
44767;DHT22;30487;48.716;9.272;2023-06-10T13:35:17;30.20;62.10
44767;DHT22;30487;48.716;9.272;2023-06-10T13:37:43;30.20;62.80
44767;DHT22;30487;48.716;9.272;2023-06-10T13:40:09;30.00;62.30
44767;DHT22;30487;48.716;9.272;2023-06-10T13:42:35;29.80;62.80
44767;DHT22;30487;48.716;9.272;2023-06-10T13:45:02;29.50;62.90
44767;DHT22;30487;48.716;9.272;2023-06-10T13:47:28;29.40;63.10
44767;DHT22;30487;48.716;9.272;2023-06-10T13:49:53;29.30;62.60
44767;DHT22;30487;48.716;9.272;2023-06-10T13:52:19;29.30;63.00
44767;DHT22;30487;48.716;9.272;2023-06-10T13:54:44;29.30;63.30
44767;DHT22;30487;48.716;9.272;2023-06-10T13:57:10;29.30;63.60
44767;DHT22;30487;48.716;9.272;2023-06-10T13:59:36;29.30;63.30
44767;DHT22;30487;48.716;9.272;2023-06-10T14:02:01;29.20;62.60
44767;DHT22;30487;48.716;9.272;2023-06-10T14:04:27;29.30;63.60
44767;DHT22;30487;48.716;9.272;2023-06-10T14:06:53;29.40;63.60
44767;DHT22;30487;48.716;9.272;2023-06-10T14:09:18;29.40;63.30
44767;DHT22;30487;48.716;9.272;2023-06-10T14:11:44;29.50;63.50
44767;DHT22;30487;48.716;9.272;2023-06-10T14:14:10;29.40;63.50
44767;DHT22;30487;48.716;9.272;2023-06-10T14:16:36;29.40;63.40
44767;DHT22;30487;48.716;9.272;2023-06-10T14:19:01;29.30;63.90
44767;DHT22;30487;48.716;9.272;2023-06-10T14:21:27;29.20;63.70
44767;DHT22;30487;48.716;9.272;2023-06-10T14:23:52;29.10;62.90
44767;DHT22;30487;48.716;9.272;2023-06-10T14:26:19;29.00;63.20
44767;DHT22;30487;48.716;9.272;2023-06-10T14:28:47;29.00;63.10
44767;DHT22;30487;48.716;9.272;2023-06-10T14:31:12;29.10;63.50
44767;DHT22;30487;48.716;9.272;2023-06-10T14:33:38;29.20;62.80
44767;DHT22;30487;48.716;9.272;2023-06-10T14:36:05;29.30;63.70
44767;DHT22;30487;48.716;9.272;2023-06-10T14:38:30;29.30;63.80
44767;DHT22;30487;48.716;9.272;2023-06-10T14:40:56;29.20;63.10
44767;DHT22;30487;48.716;9.272;2023-06-10T14:43:21;29.10;63.50
44767;DHT22;30487;48.716;9.272;2023-06-10T14:45:47;28.90;63.70
44767;DHT22;30487;48.716;9.272;2023-06-10T14:48:13;28.80;64.00
44767;DHT22;30487;48.716;9.272;2023-06-10T14:50:38;28.70;64.30
44767;DHT22;30487;48.716;9.272;2023-06-10T14:53:06;28.60;64.60
44767;DHT22;30487;48.716;9.272;2023-06-10T14:55:31;28.50;64.90
44767;DHT22;30487;48.716;9.272;2023-06-10T14:57:57;28.40;65.30
44767;DHT22;30487;48.716;9.272;2023-06-10T15:00:23;28.30;65.00
44767;DHT22;30487;48.716;9.272;2023-06-10T15:02:50;28.30;65.40
44767;DHT22;30487;48.716;9.272;2023-06-10T15:05:16;28.40;65.40
44767;DHT22;30487;48.716;9.272;2023-06-10T15:07:42;28.50;65.80
44767;DHT22;30487;48.716;9.272;2023-06-10T15:10:08;28.60;65.90
44767;DHT22;30487;48.716;9.272;2023-06-10T15:12:35;28.60;65.60
44767;DHT22;30487;48.716;9.272;2023-06-10T15:15:01;28.70;65.60
44767;DHT22;30487;48.716;9.272;2023-06-10T15:17:27;28.70;65.50
44767;DHT22;30487;48.716;9.272;2023-06-10T15:19:53;28.80;65.50
44767;DHT22;30487;48.716;9.272;2023-06-10T15:22:18;28.70;65.30
44767;DHT22;30487;48.716;9.272;2023-06-10T15:24:44;28.80;65.50
44767;DHT22;30487;48.716;9.272;2023-06-10T15:27:09;28.70;65.30
44767;DHT22;30487;48.716;9.272;2023-06-10T15:29:35;28.80;65.20
44767;DHT22;30487;48.716;9.272;2023-06-10T15:32:01;28.70;65.30
44767;DHT22;30487;48.716;9.272;2023-06-10T15:34:27;28.70;65.40
44767;DHT22;30487;48.716;9.272;2023-06-10T15:36:52;28.80;65.00
44767;DHT22;30487;48.716;9.272;2023-06-10T15:39:18;28.80;65.10
44767;DHT22;30487;48.716;9.272;2023-06-10T15:41:44;28.80;65.20
44767;DHT22;30487;48.716;9.272;2023-06-10T15:44:10;28.90;65.00
44767;DHT22;30487;48.716;9.272;2023-06-10T15:46:36;29.30;65.00
44767;DHT22;30487;48.716;9.272;2023-06-10T15:49:02;31.20;63.50